createdAt,value
2023-01-19T00:00:28.960Z,97010.72
2023-01-19T00:02:00.847Z,97012.47
2023-01-19T00:03:32.558Z,97008.88
2023-01-19T00:05:07.556Z,97019.56
2023-01-19T00:06:39.531Z,97012.88
2023-01-19T00:08:17.854Z,97015.66
2023-01-19T00:09:50.277Z,97018.72
2023-01-19T00:11:22.451Z,97016.28
2023-01-19T00:12:54.408Z,97010.53
2023-01-19T00:14:26.285Z,97011.97
2023-01-19T00:15:58.267Z,97017.28
2023-01-19T00:17:30.380Z,97015.66
2023-01-19T00:19:02.255Z,97012.38
2023-01-19T00:20:35.683Z,97019.53
2023-01-19T00:22:07.777Z,97022.00
2023-01-19T00:23:39.595Z,97021.09
2023-01-19T00:25:11.375Z,97022.94
2023-01-19T00:26:43.097Z,97024.88
2023-01-19T00:28:17.413Z,97028.44
2023-01-19T00:29:49.103Z,97028.19
2023-01-19T00:31:21.654Z,97025.91
2023-01-19T00:32:53.598Z,97027.66
2023-01-19T00:34:25.238Z,97034.81
2023-01-19T00:35:56.898Z,97034.09
2023-01-19T00:37:28.720Z,97027.34
2023-01-19T00:39:01.013Z,97035.34
2023-01-19T00:40:32.698Z,97035.53
2023-01-19T00:42:22.876Z,97035.75
2023-01-19T00:43:54.558Z,97034.44
2023-01-19T00:45:26.406Z,97035.44
2023-01-19T00:46:58.139Z,97040.56
2023-01-19T00:48:30.730Z,97032.06
2023-01-19T00:50:02.979Z,97031.97
2023-01-19T00:51:34.765Z,97034.72
2023-01-19T00:53:07.003Z,97038.19
2023-01-19T00:54:38.687Z,97039.97
2023-01-19T00:56:10.285Z,97036.56
2023-01-19T00:57:43.001Z,97033.69
2023-01-19T00:59:15.038Z,97032.56
2023-01-19T01:00:47.026Z,97030.94
2023-01-19T01:02:18.909Z,97039.97
2023-01-19T01:03:50.692Z,97042.09
2023-01-19T01:05:22.839Z,97034.53
2023-01-19T01:06:54.651Z,97039.13
2023-01-19T01:08:26.449Z,97041.19
2023-01-19T01:09:58.103Z,97041.28
2023-01-19T01:11:29.783Z,97044.03
2023-01-19T01:13:20.288Z,97044.34
2023-01-19T01:14:53.032Z,97044.13
2023-01-19T01:16:25.135Z,97050.16
2023-01-19T01:17:56.907Z,97043.53
2023-01-19T01:19:28.586Z,97048.22
2023-01-19T01:21:02.030Z,97043.31
2023-01-19T01:22:33.677Z,97046.59
2023-01-19T01:24:05.680Z,97046.28
2023-01-19T01:25:38.658Z,97042.16
2023-01-19T01:27:10.618Z,97042.47
2023-01-19T01:28:42.304Z,97045.53
2023-01-19T01:30:15.461Z,97052.03
2023-01-19T01:31:47.317Z,97051.28
2023-01-19T01:33:40.543Z,97049.13
2023-01-19T01:35:12.228Z,97055.78
2023-01-19T01:36:44.344Z,97050.25
2023-01-19T01:38:17.192Z,97049.41
2023-01-19T01:39:48.840Z,97063.03
2023-01-19T01:41:21.172Z,97058.06
2023-01-19T01:42:56.946Z,97055.50
2023-01-19T01:44:55.993Z,97049.31
2023-01-19T01:46:30.659Z,97065.16
2023-01-19T01:48:09.271Z,97059.31
2023-01-19T01:49:41.549Z,97065.06
2023-01-19T01:51:24.407Z,97065.91
2023-01-19T01:53:06.357Z,97061.78
2023-01-19T01:54:39.805Z,97059.44
2023-01-19T01:56:19.707Z,97065.47
2023-01-19T01:57:57.672Z,97065.66
2023-01-19T01:59:39.433Z,97057.97
2023-01-19T02:01:30.367Z,97058.47
2023-01-19T02:03:03.000Z,97059.50
2023-01-19T02:04:35.194Z,97061.72
2023-01-19T02:06:07.730Z,97063.84
2023-01-19T02:08:07.366Z,97064.34
2023-01-19T02:09:57.684Z,97065.34
2023-01-19T02:11:49.279Z,97068.72
2023-01-19T02:13:21.419Z,97067.47
2023-01-19T02:14:53.059Z,97068.59
2023-01-19T02:16:24.782Z,97068.75
2023-01-19T02:17:58.616Z,97065.28
2023-01-19T02:19:48.610Z,97066.03
2023-01-19T02:21:26.239Z,97069.50
2023-01-19T02:23:03.150Z,97067.94
2023-01-19T02:24:35.840Z,97071.19
2023-01-19T02:26:09.774Z,97064.59
2023-01-19T02:27:42.759Z,97067.97
2023-01-19T02:29:20.490Z,97067.59
2023-01-19T02:30:52.224Z,97068.13
2023-01-19T02:32:23.929Z,97070.97
2023-01-19T02:33:56.723Z,97072.78
2023-01-19T02:35:28.376Z,97072.34
2023-01-19T02:37:06.641Z,97075.94
2023-01-19T02:38:41.018Z,97073.72
2023-01-19T02:40:16.836Z,97071.81
2023-01-19T02:41:53.272Z,97079.75
2023-01-19T02:43:26.220Z,97077.00
2023-01-19T02:44:58.161Z,97080.56
2023-01-19T02:46:29.891Z,97081.66
2023-01-19T02:48:01.733Z,97080.84
2023-01-19T02:49:33.446Z,97081.22
2023-01-19T02:51:14.256Z,97080.69
2023-01-19T02:52:46.113Z,97089.59
2023-01-19T02:54:26.314Z,97081.09
2023-01-19T02:56:06.847Z,97088.25
2023-01-19T02:58:04.742Z,97089.88
2023-01-19T02:59:48.079Z,97091.16
2023-01-19T03:01:31.074Z,97092.91
2023-01-19T03:03:09.171Z,97081.69
2023-01-19T03:04:47.550Z,97089.63
2023-01-19T03:07:04.250Z,97087.25
2023-01-19T03:08:46.991Z,97079.50
2023-01-19T03:10:27.350Z,97086.34
2023-01-19T03:12:10.047Z,97083.88
2023-01-19T03:13:41.805Z,97090.16
2023-01-19T03:15:27.542Z,97092.91
2023-01-19T03:17:02.825Z,97095.28
2023-01-19T03:18:37.268Z,97083.78
2023-01-19T03:20:10.211Z,97092.28
2023-01-19T03:21:47.388Z,97093.47
2023-01-19T03:23:22.560Z,97087.91
2023-01-19T03:24:59.643Z,97085.69
2023-01-19T03:26:36.341Z,97086.53
2023-01-19T03:28:08.096Z,97088.16
2023-01-19T03:29:43.120Z,97090.94
2023-01-19T03:31:22.745Z,97089.91
2023-01-19T03:33:03.400Z,97091.00
2023-01-19T03:34:37.235Z,97096.28
2023-01-19T03:36:15.045Z,97085.44
2023-01-19T03:37:49.021Z,97094.28
2023-01-19T03:39:25.812Z,97088.00
2023-01-19T03:41:02.356Z,97084.97
2023-01-19T03:42:35.908Z,97081.78
2023-01-19T03:44:08.751Z,97092.91
2023-01-19T03:45:40.814Z,97092.81
2023-01-19T03:47:14.626Z,97089.72
2023-01-19T03:48:47.075Z,97090.19
2023-01-19T03:50:25.817Z,97088.44
2023-01-19T03:51:58.989Z,97084.72
2023-01-19T03:53:30.897Z,97093.66
2023-01-19T03:55:05.005Z,97093.09
2023-01-19T03:56:36.857Z,97099.66
2023-01-19T03:58:08.751Z,97099.19
2023-01-19T03:59:40.384Z,97105.22
2023-01-19T04:01:12.681Z,97099.66
2023-01-19T04:02:44.604Z,97106.78
2023-01-19T04:04:16.434Z,97100.75
2023-01-19T04:05:48.148Z,97105.03
2023-01-19T04:07:19.720Z,97106.25
2023-01-19T04:08:52.047Z,97107.53
2023-01-19T04:10:24.363Z,97102.59
2023-01-19T04:11:57.205Z,97105.06
2023-01-19T04:13:30.126Z,97112.25
2023-01-19T04:15:01.720Z,97104.59
2023-01-19T04:16:33.397Z,97103.41
2023-01-19T04:18:05.359Z,97105.78
2023-01-19T04:19:37.281Z,97099.56
2023-01-19T04:21:09.301Z,97106.25
2023-01-19T04:22:40.970Z,97108.59
2023-01-19T04:24:12.668Z,97105.41
2023-01-19T04:25:44.313Z,97102.94
2023-01-19T04:27:16.454Z,97102.41
2023-01-19T04:28:48.070Z,97094.53
2023-01-19T04:30:20.205Z,97096.63
2023-01-19T04:31:51.832Z,97109.69
2023-01-19T04:33:24.267Z,97114.78
2023-01-19T04:34:56.033Z,97108.94
2023-01-19T04:36:28.378Z,97109.41
2023-01-19T04:38:00.256Z,97108.50
2023-01-19T04:39:31.831Z,97114.97
2023-01-19T04:41:03.467Z,97116.44
2023-01-19T04:42:35.125Z,97114.06
2023-01-19T04:44:06.831Z,97118.16
2023-01-19T04:45:38.608Z,97118.34
2023-01-19T04:47:10.372Z,97112.16
2023-01-19T04:48:42.336Z,97120.53
2023-01-19T04:50:15.254Z,97122.00
2023-01-19T04:51:47.282Z,97124.25
2023-01-19T04:53:18.914Z,97111.78
2023-01-19T04:54:50.549Z,97116.78
2023-01-19T04:56:22.327Z,97114.50
2023-01-19T04:57:54.337Z,97115.88
2023-01-19T04:59:25.940Z,97115.16
2023-01-19T05:00:57.648Z,97116.66
2023-01-19T05:02:29.383Z,97122.59
2023-01-19T05:04:02.090Z,97120.25
2023-01-19T05:05:34.217Z,97126.28
2023-01-19T05:07:05.943Z,97114.50
2023-01-19T05:08:37.821Z,97122.06
2023-01-19T05:10:10.144Z,97120.06
2023-01-19T05:11:41.835Z,97126.28
2023-01-19T05:13:14.161Z,97120.63
2023-01-19T05:14:46.001Z,97120.81
2023-01-19T05:16:17.728Z,97120.25
2023-01-19T05:17:49.449Z,97127.28
2023-01-19T05:19:21.241Z,97125.63
2023-01-19T05:20:52.886Z,97128.19
2023-01-19T05:22:24.593Z,97131.13
2023-01-19T05:23:56.292Z,97134.56
2023-01-19T05:25:27.990Z,97129.28
2023-01-19T05:26:59.647Z,97130.03
2023-01-19T05:28:33.002Z,97141.31
2023-01-19T05:30:06.061Z,97139.38
2023-01-19T05:31:37.938Z,97129.53
2023-01-19T05:33:09.568Z,97138.22
2023-01-19T05:34:41.324Z,97137.69
2023-01-19T05:36:12.945Z,97142.06
2023-01-19T05:37:44.622Z,97141.16
2023-01-19T05:39:16.493Z,97140.63
2023-01-19T05:40:48.761Z,97138.59
2023-01-19T05:42:20.687Z,97139.88
2023-01-19T05:43:52.265Z,97134.34
2023-01-19T05:45:23.901Z,97144.63
2023-01-19T05:46:55.651Z,97143.19
2023-01-19T05:48:27.439Z,97136.88
2023-01-19T05:49:59.191Z,97140.16
2023-01-19T05:51:37.968Z,97144.63
2023-01-19T05:53:09.656Z,97143.66
2023-01-19T05:54:41.326Z,97155.59
2023-01-19T05:56:13.038Z,97155.75
2023-01-19T05:57:44.693Z,97159.31
2023-01-19T05:59:21.504Z,97151.75
2023-01-19T06:00:53.125Z,97153.56
2023-01-19T06:02:28.702Z,97153.56
2023-01-19T06:04:00.767Z,97160.59
2023-01-19T06:05:32.819Z,97169.19
2023-01-19T06:07:06.296Z,97160.13
2023-01-19T06:08:37.914Z,97157.41
2023-01-19T06:10:10.166Z,97170.19
2023-01-19T06:11:41.939Z,97169.53
2023-01-19T06:13:13.586Z,97166.41
2023-01-19T06:14:45.228Z,97162.06
2023-01-19T06:16:16.873Z,97163.78
2023-01-19T06:17:48.524Z,97171.63
2023-01-19T06:19:20.215Z,97169.97
2023-01-19T06:20:58.405Z,97165.13
2023-01-19T06:22:30.093Z,97173.16
2023-01-19T06:24:01.685Z,97164.06
2023-01-19T06:25:33.352Z,97172.63
2023-01-19T06:27:06.568Z,97173.72
2023-01-19T06:28:38.311Z,97178.34
2023-01-19T06:30:10.651Z,97187.22
2023-01-19T06:31:42.695Z,97176.53
2023-01-19T06:33:14.398Z,97175.63
2023-01-19T06:34:46.812Z,97180.00
2023-01-19T06:36:18.581Z,97175.56
2023-01-19T06:37:52.901Z,97182.28
2023-01-19T06:39:24.604Z,97183.28
2023-01-19T06:41:03.236Z,97188.31
2023-01-19T06:42:34.964Z,97186.66
2023-01-19T06:44:06.577Z,97180.00
2023-01-19T06:45:39.270Z,97184.47
2023-01-19T06:47:14.992Z,97186.28
2023-01-19T06:48:48.140Z,97184.00
2023-01-19T06:50:19.816Z,97183.72
2023-01-19T06:51:52.640Z,97177.88
2023-01-19T06:53:24.364Z,97182.44
2023-01-19T06:54:56.642Z,97176.50
2023-01-19T06:56:28.575Z,97180.06
2023-01-19T06:58:00.839Z,97184.72
2023-01-19T06:59:32.555Z,97182.09
2023-01-19T07:01:05.882Z,97186.66
2023-01-19T07:02:42.515Z,97199.59
2023-01-19T07:04:15.243Z,97191.19
2023-01-19T07:05:47.079Z,97187.94
2023-01-19T07:07:18.746Z,97189.81
2023-01-19T07:08:50.444Z,97192.47
2023-01-19T07:10:23.297Z,97196.75
2023-01-19T07:11:55.251Z,97192.47
2023-01-19T07:13:27.205Z,97192.72
2023-01-19T07:14:59.075Z,97204.84
2023-01-19T07:16:31.282Z,97206.50
2023-01-19T07:18:07.636Z,97196.09
2023-01-19T07:19:39.225Z,97199.88
2023-01-19T07:21:10.890Z,97194.94
2023-01-19T07:22:46.689Z,97204.69
2023-01-19T07:24:18.386Z,97198.38
2023-01-19T07:25:50.047Z,97210.59
2023-01-19T07:27:21.703Z,97200.94
2023-01-19T07:28:53.628Z,97203.06
2023-01-19T07:30:25.868Z,97203.59
2023-01-19T07:31:57.867Z,97193.28
2023-01-19T07:33:29.857Z,97200.94
2023-01-19T07:35:01.676Z,97200.03
2023-01-19T07:36:33.609Z,97196.78
2023-01-19T07:38:05.191Z,97199.81
2023-01-19T07:39:36.972Z,97206.97
2023-01-19T07:41:10.790Z,97198.69
2023-01-19T07:42:50.331Z,97204.53
2023-01-19T07:44:22.405Z,97205.44
2023-01-19T07:45:58.738Z,97210.00
2023-01-19T07:47:30.364Z,97212.72
2023-01-19T07:49:02.139Z,97208.16
2023-01-19T07:50:33.978Z,97206.28
2023-01-19T07:52:06.123Z,97220.69
2023-01-19T07:53:38.440Z,97212.00
2023-01-19T07:55:10.351Z,97217.94
2023-01-19T07:56:41.984Z,97219.06
2023-01-19T07:58:13.719Z,97216.97
2023-01-19T07:59:45.345Z,97215.88
2023-01-19T08:01:17.052Z,97217.72
2023-01-19T08:02:51.891Z,97222.00
2023-01-19T08:04:23.905Z,97228.09
2023-01-19T08:05:57.098Z,97227.94
2023-01-19T08:07:28.742Z,97229.00
2023-01-19T08:09:00.613Z,97236.75
2023-01-19T08:10:33.099Z,97231.38
2023-01-19T08:12:05.092Z,97228.41
2023-01-19T08:13:36.966Z,97234.56
2023-01-19T08:15:10.387Z,97228.47
2023-01-19T08:16:42.127Z,97236.06
2023-01-19T08:18:15.698Z,97232.13
2023-01-19T08:19:47.411Z,97236.59
2023-01-19T08:21:19.179Z,97234.88
2023-01-19T08:22:51.355Z,97238.16
2023-01-19T08:24:25.787Z,97237.06
2023-01-19T08:25:57.526Z,97242.00
2023-01-19T08:27:30.127Z,97240.34
2023-01-19T08:29:04.966Z,97250.22
2023-01-19T08:30:37.393Z,97250.03
2023-01-19T08:32:09.584Z,97249.03
2023-01-19T08:33:42.964Z,97241.56
2023-01-19T08:35:15.745Z,97240.44
2023-01-19T08:36:47.809Z,97238.88
2023-01-19T08:38:19.781Z,97242.84
2023-01-19T08:39:53.619Z,97241.81
2023-01-19T08:41:25.281Z,97247.38
2023-01-19T08:43:03.727Z,97242.38
2023-01-19T08:44:36.632Z,97244.00
2023-01-19T08:46:11.586Z,97244.72
2023-01-19T08:47:43.359Z,97246.00
2023-01-19T08:49:15.881Z,97257.72
2023-01-19T08:50:49.003Z,97255.78
2023-01-19T08:52:21.228Z,97250.75
2023-01-19T08:53:52.910Z,97253.03
2023-01-19T08:55:25.653Z,97251.84
2023-01-19T08:56:57.420Z,97259.31
2023-01-19T08:58:29.564Z,97252.47
2023-01-19T09:00:01.549Z,97255.28
2023-01-19T09:01:33.521Z,97253.16
2023-01-19T09:03:07.244Z,97253.66
2023-01-19T09:04:39.052Z,97255.78
2023-01-19T09:06:13.293Z,97248.59
2023-01-19T09:07:48.060Z,97253.00
2023-01-19T09:09:19.765Z,97255.22
2023-01-19T09:10:51.732Z,97254.56
2023-01-19T09:12:23.447Z,97256.53
2023-01-19T09:13:55.150Z,97248.28
2023-01-19T09:15:26.910Z,97257.56
2023-01-19T09:16:59.264Z,97262.59
2023-01-19T09:18:31.283Z,97267.47
2023-01-19T09:20:04.504Z,97268.13
2023-01-19T09:21:36.134Z,97261.53
2023-01-19T09:23:11.754Z,97266.06
2023-01-19T09:24:43.433Z,97271.00
2023-01-19T09:26:15.172Z,97268.91
2023-01-19T09:27:46.851Z,97264.06
2023-01-19T09:29:18.590Z,97265.38
2023-01-19T09:30:50.315Z,97267.25
2023-01-19T09:32:22.944Z,97273.31
2023-01-19T09:33:54.563Z,97270.16
2023-01-19T09:35:26.285Z,97265.16
2023-01-19T09:36:58.164Z,97269.09
2023-01-19T09:38:32.915Z,97257.19
2023-01-19T09:40:06.257Z,97267.00
2023-01-19T09:41:42.039Z,97267.22
2023-01-19T09:43:35.315Z,97271.63
2023-01-19T09:45:27.320Z,97271.22
2023-01-19T09:47:03.109Z,97266.78
2023-01-19T09:48:45.842Z,97266.91
2023-01-19T09:50:27.716Z,97269.38
2023-01-19T09:51:59.479Z,97267.03
2023-01-19T09:53:40.432Z,97268.78
2023-01-19T09:55:21.591Z,97260.00
2023-01-19T09:56:54.081Z,97269.63
2023-01-19T09:58:26.060Z,97264.78
2023-01-19T10:00:00.724Z,97265.47
2023-01-19T10:02:08.001Z,97268.84
2023-01-19T10:03:41.483Z,97271.66
2023-01-19T10:05:25.263Z,97262.31
2023-01-19T10:07:15.041Z,97257.28
2023-01-19T10:08:52.493Z,97259.63
2023-01-19T10:10:27.132Z,97258.22
2023-01-19T10:12:08.723Z,97261.50
2023-01-19T10:13:49.854Z,97257.28
2023-01-19T10:15:47.899Z,97261.34
2023-01-19T10:17:38.666Z,97257.94
2023-01-19T10:19:33.731Z,97261.69
2023-01-19T10:21:10.602Z,97262.53
2023-01-19T10:22:44.450Z,97251.66
2023-01-19T10:24:28.333Z,97252.59
2023-01-19T10:26:03.310Z,97250.84
2023-01-19T10:27:37.833Z,97250.84
2023-01-19T10:29:40.850Z,97253.41
2023-01-19T10:31:14.015Z,97244.28
2023-01-19T10:32:45.767Z,97249.09
2023-01-19T10:34:23.393Z,97245.16
2023-01-19T10:35:55.638Z,97250.69
2023-01-19T10:37:40.701Z,97245.53
2023-01-19T10:39:17.028Z,97248.34
2023-01-19T10:40:57.414Z,97243.53
2023-01-19T10:42:30.932Z,97248.34
2023-01-19T10:44:05.511Z,97247.56
2023-01-19T10:45:37.895Z,97247.09
2023-01-19T10:47:17.289Z,97244.53
2023-01-19T10:48:51.784Z,97247.00
2023-01-19T10:50:32.565Z,97239.25
2023-01-19T10:52:07.713Z,97239.84
2023-01-19T10:53:42.737Z,97243.38
2023-01-19T10:55:26.293Z,97239.38
2023-01-19T10:57:07.507Z,97243.72
2023-01-19T10:58:40.565Z,97242.22
2023-01-19T11:00:40.245Z,97235.06
2023-01-19T11:02:18.757Z,97240.06
2023-01-19T11:03:53.365Z,97239.94
2023-01-19T11:05:27.863Z,97236.25
2023-01-19T11:07:25.748Z,97225.78
2023-01-19T11:09:15.318Z,97237.38
2023-01-19T11:10:56.132Z,97236.72
2023-01-19T11:12:27.884Z,97230.94
2023-01-19T11:14:07.360Z,97233.97
2023-01-19T11:15:59.198Z,97231.88
2023-01-19T11:17:30.837Z,97227.81
2023-01-19T11:19:03.566Z,97230.47
2023-01-19T11:20:55.509Z,97238.53
2023-01-19T11:22:33.819Z,97231.13
2023-01-19T11:24:10.700Z,97230.88
2023-01-19T11:25:46.475Z,97225.72
2023-01-19T11:27:21.062Z,97227.09
2023-01-19T11:28:56.011Z,97227.06
2023-01-19T11:30:28.042Z,97229.44
2023-01-19T11:32:19.196Z,97232.94
2023-01-19T11:33:54.240Z,97236.34
2023-01-19T11:35:32.123Z,97230.50
2023-01-19T11:37:23.512Z,97234.78
2023-01-19T11:39:01.443Z,97231.59
2023-01-19T11:40:34.951Z,97227.09
2023-01-19T11:42:11.235Z,97234.16
2023-01-19T11:43:49.013Z,97222.38
2023-01-19T11:45:22.514Z,97220.63
2023-01-19T11:46:58.794Z,97222.13
2023-01-19T11:48:39.647Z,97215.66
2023-01-19T11:50:14.473Z,97205.91
2023-01-19T11:51:56.636Z,97206.53
2023-01-19T11:53:34.026Z,97214.88
2023-01-19T11:55:17.750Z,97211.06
2023-01-19T11:56:52.055Z,97216.72
2023-01-19T11:58:25.809Z,97211.25
2023-01-19T12:00:03.468Z,97215.91
2023-01-19T12:01:52.297Z,97205.03
2023-01-19T12:03:30.590Z,97204.94
2023-01-19T12:05:11.228Z,97209.56
2023-01-19T12:06:50.011Z,97214.19
2023-01-19T12:08:30.762Z,97216.13
2023-01-19T12:10:20.741Z,97209.47
2023-01-19T12:12:00.526Z,97211.38
2023-01-19T12:13:33.690Z,97205.81
2023-01-19T12:15:09.130Z,97211.75
2023-01-19T12:16:43.171Z,97214.16
2023-01-19T12:18:43.848Z,97210.13
2023-01-19T12:20:24.497Z,97211.50
2023-01-19T12:21:56.542Z,97215.28
2023-01-19T12:23:31.169Z,97217.94
2023-01-19T12:25:20.726Z,97215.56
2023-01-19T12:27:01.918Z,97217.13
2023-01-19T12:28:38.813Z,97215.81
2023-01-19T12:30:30.790Z,97205.63
2023-01-19T12:32:14.217Z,97219.25
2023-01-19T12:33:46.390Z,97211.47
2023-01-19T12:35:56.401Z,97209.75
2023-01-19T12:37:28.996Z,97215.44
2023-01-19T12:39:17.028Z,97213.25
2023-01-19T12:40:48.759Z,97214.88
2023-01-19T12:42:21.487Z,97214.47
2023-01-19T12:44:12.006Z,97216.41
2023-01-19T12:45:45.869Z,97210.97
2023-01-19T12:47:24.446Z,97218.84
2023-01-19T12:49:10.223Z,97210.53
2023-01-19T12:50:46.523Z,97216.88
2023-01-19T12:52:27.125Z,97211.47
2023-01-19T12:54:02.223Z,97212.72
2023-01-19T12:55:37.717Z,97214.16
2023-01-19T12:57:29.439Z,97210.28
2023-01-19T12:59:01.594Z,97219.97
2023-01-19T13:00:42.816Z,97216.84
2023-01-19T13:02:20.168Z,97217.13
2023-01-19T13:04:03.734Z,97208.34
2023-01-19T13:05:38.559Z,97217.22
2023-01-19T13:07:16.805Z,97215.03
2023-01-19T13:09:00.960Z,97216.28
2023-01-19T13:11:00.773Z,97211.63
2023-01-19T13:12:32.578Z,97207.03
2023-01-19T13:14:04.116Z,97213.16
2023-01-19T13:15:36.307Z,97213.94
2023-01-19T13:17:28.510Z,97216.00
2023-01-19T13:19:06.566Z,97204.81
2023-01-19T13:20:50.543Z,97207.56
2023-01-19T13:22:49.978Z,97206.72
2023-01-19T13:24:23.507Z,97211.75
2023-01-19T13:26:02.920Z,97208.66
2023-01-19T13:27:35.319Z,97209.28
2023-01-19T13:29:13.709Z,97212.94
2023-01-19T13:31:05.161Z,97212.69
2023-01-19T13:32:40.328Z,97209.44
2023-01-19T13:34:14.737Z,97215.72
2023-01-19T13:35:53.574Z,97213.56
2023-01-19T13:37:38.938Z,97211.66
2023-01-19T13:39:34.223Z,97213.13
2023-01-19T13:41:05.787Z,97213.09
2023-01-19T13:42:40.320Z,97210.47
2023-01-19T13:44:26.204Z,97210.97
2023-01-19T13:45:59.157Z,97208.09
2023-01-19T13:47:45.704Z,97208.94
2023-01-19T13:49:22.753Z,97211.50
2023-01-19T13:51:04.130Z,97212.56
2023-01-19T13:52:35.780Z,97214.72
2023-01-19T13:54:18.003Z,97214.19
2023-01-19T13:56:17.187Z,97218.06
2023-01-19T13:57:50.279Z,97220.13
2023-01-19T13:59:21.952Z,97222.56
2023-01-19T14:00:53.529Z,97215.38
2023-01-19T14:02:25.294Z,97218.22
2023-01-19T14:03:57.129Z,97222.41
2023-01-19T14:05:36.990Z,97228.16
2023-01-19T14:07:22.560Z,97213.38
2023-01-19T14:09:26.708Z,97217.84
2023-01-19T14:11:00.144Z,97223.06
2023-01-19T14:12:32.378Z,97216.66
2023-01-19T14:14:04.060Z,97218.41
2023-01-19T14:15:35.692Z,97223.31
2023-01-19T14:17:28.685Z,97231.47
2023-01-19T14:19:04.746Z,97223.44
2023-01-19T14:20:37.203Z,97226.84
2023-01-19T14:22:08.825Z,97233.13
2023-01-19T14:24:08.343Z,97226.91
2023-01-19T14:25:44.866Z,97231.63
2023-01-19T14:27:20.113Z,97220.75
2023-01-19T14:28:51.735Z,97220.88
2023-01-19T14:30:26.073Z,97221.44
2023-01-19T14:32:00.845Z,97218.59
2023-01-19T14:33:52.704Z,97218.88
2023-01-19T14:35:25.088Z,97219.22
2023-01-19T14:36:57.074Z,97221.81
2023-01-19T14:38:28.751Z,97215.28
2023-01-19T14:40:13.211Z,97212.81
2023-01-19T14:41:52.353Z,97214.56
2023-01-19T14:43:28.517Z,97212.81
2023-01-19T14:45:01.366Z,97217.16
2023-01-19T14:46:33.142Z,97216.22
2023-01-19T14:48:06.633Z,97216.09
2023-01-19T14:49:41.544Z,97216.66
2023-01-19T14:51:18.528Z,97219.34
2023-01-19T14:52:56.037Z,97220.03
2023-01-19T14:54:40.595Z,97222.06
2023-01-19T14:56:12.287Z,97219.03
2023-01-19T14:57:44.142Z,97216.47
2023-01-19T14:59:15.817Z,97221.50
2023-01-19T15:00:49.341Z,97215.50
2023-01-19T15:02:21.565Z,97221.94
2023-01-19T15:03:53.259Z,97217.84
2023-01-19T15:05:25.003Z,97214.56
2023-01-19T15:06:56.762Z,97211.06
2023-01-19T15:08:34.250Z,97215.16
2023-01-19T15:10:16.021Z,97214.19
2023-01-19T15:11:50.185Z,97210.13
2023-01-19T15:13:23.916Z,97212.13
2023-01-19T15:14:56.119Z,97212.38
2023-01-19T15:16:29.945Z,97215.09
2023-01-19T15:18:04.117Z,97211.00
2023-01-19T15:19:35.732Z,97211.69
2023-01-19T15:21:14.204Z,97212.50
2023-01-19T15:22:46.147Z,97212.06
2023-01-19T15:24:18.188Z,97213.00
2023-01-19T15:25:50.681Z,97214.66
2023-01-19T15:27:23.376Z,97214.78
2023-01-19T15:28:56.570Z,97211.75
2023-01-19T15:30:33.480Z,97211.88
2023-01-19T15:32:05.557Z,97206.16
2023-01-19T15:33:37.327Z,97213.06
2023-01-19T15:35:17.948Z,97204.25
2023-01-19T15:36:49.655Z,97205.53
2023-01-19T15:38:21.439Z,97207.28
2023-01-19T15:39:53.117Z,97201.56
2023-01-19T15:41:32.246Z,97203.56
2023-01-19T15:43:04.077Z,97209.34
2023-01-19T15:44:35.732Z,97208.91
2023-01-19T15:46:07.673Z,97201.75
2023-01-19T15:47:39.584Z,97207.66
2023-01-19T15:49:11.225Z,97214.16
2023-01-19T15:50:44.881Z,97208.41
2023-01-19T15:52:17.196Z,97210.47
2023-01-19T15:53:49.726Z,97211.56
2023-01-19T15:55:21.442Z,97211.69
2023-01-19T15:56:53.162Z,97208.53
2023-01-19T15:58:25.185Z,97201.88
2023-01-19T15:59:56.827Z,97207.28
2023-01-19T16:01:32.336Z,97211.06
2023-01-19T16:03:04.406Z,97206.84
2023-01-19T16:04:36.116Z,97216.44
2023-01-19T16:06:08.283Z,97208.47
2023-01-19T16:07:39.978Z,97208.47
2023-01-19T16:09:16.759Z,97207.53
2023-01-19T16:10:48.350Z,97213.38
2023-01-19T16:12:20.038Z,97206.94
2023-01-19T16:13:51.909Z,97215.91
2023-01-19T16:15:23.712Z,97214.47
2023-01-19T16:16:55.454Z,97208.06
2023-01-19T16:18:27.172Z,97207.97
2023-01-19T16:19:58.835Z,97214.47
2023-01-19T16:21:30.516Z,97210.13
2023-01-19T16:23:14.467Z,97209.41
2023-01-19T16:24:46.956Z,97214.00
2023-01-19T16:26:30.618Z,97214.25
2023-01-19T16:28:02.285Z,97213.31
2023-01-19T16:29:33.901Z,97214.59
2023-01-19T16:31:05.668Z,97216.38
2023-01-19T16:32:38.408Z,97213.00
2023-01-19T16:34:10.426Z,97213.44
2023-01-19T16:35:42.045Z,97209.41
2023-01-19T16:37:13.724Z,97216.56
2023-01-19T16:38:45.339Z,97216.94
2023-01-19T16:40:17.300Z,97218.72
2023-01-19T16:41:48.944Z,97214.38
2023-01-19T16:43:20.594Z,97213.44
2023-01-19T16:44:52.348Z,97213.44
2023-01-19T16:46:38.883Z,97213.44
2023-01-19T16:48:10.696Z,97216.25
2023-01-19T16:49:42.334Z,97214.13
2023-01-19T16:51:14.005Z,97217.06
2023-01-19T16:52:46.334Z,97216.72
2023-01-19T16:54:21.059Z,97217.50
2023-01-19T16:55:53.208Z,97208.47
2023-01-19T16:57:24.931Z,97216.44
2023-01-19T16:58:58.725Z,97218.72
2023-01-19T17:00:30.393Z,97217.44
2023-01-19T17:02:02.626Z,97223.53
2023-01-19T17:03:34.786Z,97217.19
2023-01-19T17:05:07.268Z,97224.56
2023-01-19T17:06:39.395Z,97223.75
2023-01-19T17:08:11.026Z,97224.19
2023-01-19T17:09:42.718Z,97219.09
2023-01-19T17:11:22.647Z,97222.34
2023-01-19T17:12:54.330Z,97223.88
2023-01-19T17:14:26.158Z,97223.22
2023-01-19T17:16:01.885Z,97225.34
2023-01-19T17:17:36.215Z,97217.25
2023-01-19T17:19:08.985Z,97220.63
2023-01-19T17:20:40.668Z,97222.00
2023-01-19T17:22:13.469Z,97219.81
2023-01-19T17:23:47.467Z,97215.59
2023-01-19T17:25:19.293Z,97211.78
2023-01-19T17:26:50.925Z,97216.75
2023-01-19T17:28:23.518Z,97220.53
2023-01-19T17:29:55.276Z,97215.16
2023-01-19T17:31:27.232Z,97221.13
2023-01-19T17:32:58.959Z,97224.75
2023-01-19T17:34:30.640Z,97219.81
2023-01-19T17:36:08.114Z,97219.00
2023-01-19T17:37:39.946Z,97216.31
2023-01-19T17:39:14.887Z,97221.00
2023-01-19T17:40:46.692Z,97216.41
2023-01-19T17:42:18.434Z,97218.66
2023-01-19T17:43:51.191Z,97219.03
2023-01-19T17:45:22.998Z,97216.69
2023-01-19T17:46:54.684Z,97218.34
2023-01-19T17:48:26.339Z,97216.81
2023-01-19T17:49:58.013Z,97221.53
2023-01-19T17:51:30.908Z,97223.41
2023-01-19T17:53:02.750Z,97216.13
2023-01-19T17:54:34.505Z,97224.94
2023-01-19T17:56:14.862Z,97224.66
2023-01-19T17:57:46.517Z,97219.16
2023-01-19T17:59:18.232Z,97225.47
2023-01-19T18:00:49.981Z,97219.66
2023-01-19T18:02:24.405Z,97220.25
2023-01-19T18:03:56.789Z,97223.41
2023-01-19T18:05:28.487Z,97221.19
2023-01-19T18:07:00.202Z,97225.97
2023-01-19T18:08:32.856Z,97227.72
2023-01-19T18:10:06.462Z,97231.38
2023-01-19T18:11:38.255Z,97233.38
2023-01-19T18:13:09.975Z,97231.72
2023-01-19T18:14:41.795Z,97239.13
2023-01-19T18:16:16.831Z,97235.97
2023-01-19T18:17:48.530Z,97236.31
2023-01-19T18:19:22.237Z,97235.38
2023-01-19T18:20:57.284Z,97236.06
2023-01-19T18:22:28.976Z,97235.84
2023-01-19T18:24:02.941Z,97232.22
2023-01-19T18:25:34.629Z,97235.84
2023-01-19T18:27:06.289Z,97230.91
2023-01-19T18:28:38.166Z,97236.31
2023-01-19T18:30:10.662Z,97234.09
2023-01-19T18:31:42.936Z,97238.69
2023-01-19T18:33:14.575Z,97237.84
2023-01-19T18:34:46.267Z,97237.13
2023-01-19T18:36:18.437Z,97240.75
2023-01-19T18:37:50.578Z,97241.81